createdAt,value
2019-03-16T00:00:36.842Z,57.12
2019-03-16T00:01:36.771Z,56.92
2019-03-16T00:02:36.768Z,56.92
2019-03-16T00:03:36.743Z,56.92
2019-03-16T00:04:36.776Z,56.82
2019-03-16T00:05:36.775Z,56.92
2019-03-16T00:06:36.709Z,57.32
2019-03-16T00:07:36.690Z,57.42
2019-03-16T00:08:36.690Z,57.32
2019-03-16T00:09:36.674Z,56.92
2019-03-16T00:10:36.710Z,56.92
2019-03-16T00:11:36.671Z,56.41
2019-03-16T00:12:36.689Z,57.22
2019-03-16T00:13:36.647Z,56.92
2019-03-16T00:14:36.646Z,56.92
2019-03-16T00:15:36.707Z,57.32
2019-03-16T00:16:36.613Z,57.02
2019-03-16T00:17:36.580Z,57.42
2019-03-16T00:18:36.573Z,57.12
2019-03-16T00:19:36.573Z,57.12
2019-03-16T00:20:36.582Z,57.12
2019-03-16T00:21:36.564Z,56.82
2019-03-16T00:22:36.558Z,56.92
2019-03-16T00:23:36.543Z,57.22
2019-03-16T00:24:36.498Z,56.82
2019-03-16T00:25:36.503Z,56.82
2019-03-16T00:26:36.508Z,56.71
2019-03-16T00:27:36.496Z,56.82
2019-03-16T00:28:36.469Z,56.82
2019-03-16T00:29:36.505Z,56.71
2019-03-16T00:30:36.503Z,56.82
2019-03-16T00:31:36.489Z,56.82
2019-03-16T00:32:36.412Z,57.12
2019-03-16T00:33:36.452Z,57.12
2019-03-16T00:34:36.417Z,56.71
2019-03-16T00:35:36.377Z,56.51
2019-03-16T00:36:36.402Z,56.82
2019-03-16T00:37:36.360Z,56.82
2019-03-16T00:38:36.378Z,56.82
2019-03-16T00:39:36.339Z,56.62
2019-03-16T00:40:36.371Z,56.82
2019-03-16T00:41:36.306Z,56.82
2019-03-16T00:42:36.326Z,56.82
2019-03-16T00:43:36.290Z,57.12
2019-03-16T00:44:36.296Z,56.62
2019-03-16T00:45:36.287Z,56.92
2019-03-16T00:46:36.284Z,56.92
2019-03-16T00:47:36.315Z,56.92
2019-03-16T00:48:36.266Z,56.31
2019-03-16T00:49:36.231Z,56.62
2019-03-16T00:50:36.240Z,56.92
2019-03-16T00:51:36.253Z,56.92
2019-03-16T00:52:36.207Z,57.02
2019-03-16T00:53:36.221Z,56.51
2019-03-16T00:54:36.228Z,56.31
2019-03-16T00:55:36.211Z,56.82
2019-03-16T00:56:36.164Z,56.92
2019-03-16T00:57:36.194Z,56.51
2019-03-16T00:58:36.112Z,56.41
2019-03-16T00:59:36.106Z,56.82
2019-03-16T01:00:36.127Z,56.31
2019-03-16T01:01:36.083Z,56.71
2019-03-16T01:02:36.077Z,56.71
2019-03-16T01:03:36.139Z,56.62
2019-03-16T01:04:36.073Z,56.62
2019-03-16T01:05:36.052Z,56.92
2019-03-16T01:06:36.050Z,56.62
2019-03-16T01:07:36.020Z,56.92
2019-03-16T01:08:36.013Z,56.82
2019-03-16T01:09:36.113Z,56.51
2019-03-16T01:10:36.049Z,57.22
2019-03-16T01:11:35.978Z,56.71
2019-03-16T01:12:36.025Z,56.82
2019-03-16T01:13:36.019Z,56.82
2019-03-16T01:14:36.008Z,56.82
2019-03-16T01:15:36.555Z,56.82
2019-03-16T01:16:35.953Z,56.71
2019-03-16T01:17:35.927Z,56.71
2019-03-16T01:18:35.901Z,56.82
2019-03-16T01:19:35.887Z,56.62
2019-03-16T01:20:35.938Z,56.71
2019-03-16T01:21:35.880Z,56.41
2019-03-16T01:22:35.874Z,56.82
2019-03-16T01:23:35.848Z,56.82
2019-03-16T01:24:35.861Z,56.62
2019-03-16T01:25:35.878Z,56.62
2019-03-16T01:26:35.821Z,56.41
2019-03-16T01:27:35.843Z,56.82
2019-03-16T01:28:35.798Z,56.71
2019-03-16T01:29:35.776Z,56.51
2019-03-16T01:30:35.806Z,56.62
2019-03-16T01:31:35.785Z,56.41
2019-03-16T01:32:40.496Z,56.71
2019-03-16T01:33:36.757Z,56.41
2019-03-16T01:34:35.725Z,56.62
2019-03-16T01:35:35.720Z,56.62
2019-03-16T01:36:35.755Z,56.31
2019-03-16T01:37:35.694Z,56.62
2019-03-16T01:38:35.683Z,56.51
2019-03-16T01:39:35.664Z,56.62
2019-03-16T01:40:35.658Z,56.62
2019-03-16T01:41:35.692Z,56.82
2019-03-16T01:42:35.645Z,56.62
2019-03-16T01:43:35.663Z,56.51
2019-03-16T01:44:35.623Z,56.41
2019-03-16T01:45:35.629Z,56.41
2019-03-16T01:46:35.589Z,56.11
2019-03-16T01:47:35.613Z,56.71
2019-03-16T01:48:35.603Z,56.71
2019-03-16T01:49:35.586Z,56.31
2019-03-16T01:50:35.548Z,56.41
2019-03-16T01:51:35.610Z,56.41
2019-03-16T01:52:35.569Z,56.41
2019-03-16T01:53:35.559Z,56.41
2019-03-16T01:54:35.542Z,56.51
2019-03-16T01:55:35.501Z,56.41
2019-03-16T01:56:35.560Z,56.21
2019-03-16T01:57:35.466Z,56.41
2019-03-16T01:58:35.502Z,56.71
2019-03-16T01:59:35.471Z,56.92
2019-03-16T02:00:35.459Z,56.71
2019-03-16T02:01:35.480Z,56.51
2019-03-16T02:02:35.440Z,56.71
2019-03-16T02:03:35.430Z,56.41
2019-03-16T02:04:35.427Z,56.71
2019-03-16T02:05:35.450Z,56.41
2019-03-16T02:06:35.429Z,56.71
2019-03-16T02:07:35.440Z,56.62
2019-03-16T02:08:35.400Z,56.82
2019-03-16T02:09:35.376Z,56.41
2019-03-16T02:10:35.350Z,56.51
2019-03-16T02:11:35.344Z,56.71
2019-03-16T02:12:35.371Z,56.62
2019-03-16T02:13:35.299Z,56.41
2019-03-16T02:14:35.289Z,56.62
2019-03-16T02:15:35.283Z,56.62
2019-03-16T02:16:35.266Z,56.71
2019-03-16T02:17:35.305Z,56.62
2019-03-16T02:18:35.243Z,56.51
2019-03-16T02:19:36.040Z,56.41
2019-03-16T02:20:35.220Z,56.41
2019-03-16T02:21:35.293Z,56.51
2019-03-16T02:22:35.197Z,56.71
2019-03-16T02:23:35.228Z,56.71
2019-03-16T02:24:35.178Z,56.71
2019-03-16T02:25:35.168Z,56.71
2019-03-16T02:26:35.157Z,56.82
2019-03-16T02:27:35.151Z,56.71
2019-03-16T02:28:35.121Z,56.62
2019-03-16T02:29:35.187Z,56.62
2019-03-16T02:30:35.107Z,56.41
2019-03-16T02:31:35.105Z,56.71
2019-03-16T02:32:35.100Z,56.62
2019-03-16T02:33:35.088Z,56.62
2019-03-16T02:34:35.073Z,56.41
2019-03-16T02:35:35.104Z,56.62
2019-03-16T02:36:35.068Z,56.21
2019-03-16T02:37:35.036Z,56.51
2019-03-16T02:38:35.030Z,56.41
2019-03-16T02:39:35.029Z,56.62
2019-03-16T02:40:35.044Z,56.71
2019-03-16T02:41:34.989Z,56.11
2019-03-16T02:42:34.986Z,56.31
2019-03-16T02:43:34.970Z,56.21
2019-03-16T02:44:34.961Z,56.31
2019-03-16T02:45:34.947Z,56.21
2019-03-16T02:46:35.070Z,56.41
2019-03-16T02:47:34.946Z,56.31
2019-03-16T02:48:34.902Z,56.41
2019-03-16T02:49:34.909Z,56.31
2019-03-16T02:50:34.893Z,56.62
2019-03-16T02:51:34.908Z,56.51
2019-03-16T02:52:34.874Z,56.62
2019-03-16T02:53:34.866Z,56.41
2019-03-16T02:54:34.852Z,56.62
2019-03-16T02:55:34.840Z,56.31
2019-03-16T02:56:34.878Z,56.31
2019-03-16T02:57:34.839Z,56.51
2019-03-16T02:58:34.817Z,56.51
2019-03-16T02:59:34.787Z,56.51
2019-03-16T03:00:34.779Z,56.62
2019-03-16T03:01:34.801Z,56.51
2019-03-16T03:02:34.761Z,56.62
2019-03-16T03:03:34.757Z,56.41
2019-03-16T03:04:34.736Z,56.71
2019-03-16T03:05:34.716Z,56.51
2019-03-16T03:06:34.706Z,56.71
2019-03-16T03:07:34.734Z,56.62
2019-03-16T03:08:34.700Z,56.41
2019-03-16T03:09:34.682Z,56.41
2019-03-16T03:10:34.664Z,56.51
2019-03-16T03:11:34.657Z,56.62
2019-03-16T03:12:34.724Z,56.21
2019-03-16T03:13:34.644Z,56.62
2019-03-16T03:14:34.618Z,56.62
2019-03-16T03:15:34.630Z,56.62
2019-03-16T03:16:34.612Z,56.31
2019-03-16T03:17:34.586Z,56.62
2019-03-16T03:18:34.641Z,56.21
2019-03-16T03:19:34.570Z,56.31
2019-03-16T03:20:34.564Z,56.31
2019-03-16T03:21:34.563Z,56.62
2019-03-16T03:22:34.537Z,56.21
2019-03-16T03:23:34.525Z,56.31
2019-03-16T03:24:34.549Z,56.11
2019-03-16T03:25:34.522Z,56.21
2019-03-16T03:26:34.487Z,56.41
2019-03-16T03:27:34.496Z,56.21
2019-03-16T03:28:34.483Z,56.31
2019-03-16T03:29:34.487Z,56.01
2019-03-16T03:30:34.453Z,56.01
2019-03-16T03:31:34.446Z,56.11
2019-03-16T03:32:34.428Z,56.51
2019-03-16T03:33:57.863Z,56.41
2019-03-16T03:34:35.456Z,56.11
2019-03-16T03:35:34.398Z,56.21
2019-03-16T03:36:34.391Z,56.01
2019-03-16T03:37:34.369Z,56.21
2019-03-16T03:38:34.368Z,56.11
2019-03-16T03:39:34.345Z,56.31
2019-03-16T03:40:34.374Z,56.21
2019-03-16T03:41:34.329Z,56.21
2019-03-16T03:42:34.331Z,56.21
2019-03-16T03:43:34.312Z,56.31
2019-03-16T03:44:34.303Z,56.11
2019-03-16T03:45:34.311Z,56.31
2019-03-16T03:46:34.308Z,56.21
2019-03-16T03:47:34.466Z,56.11
2019-03-16T03:48:34.256Z,56.21
2019-03-16T03:49:34.314Z,56.31
2019-03-16T03:50:34.236Z,56.11
2019-03-16T03:51:34.249Z,56.21
2019-03-16T03:52:34.243Z,56.31
2019-03-16T03:53:34.234Z,56.21
2019-03-16T03:54:34.226Z,56.31
2019-03-16T03:55:34.208Z,56.41
2019-03-16T03:56:34.211Z,56.51
2019-03-16T03:57:34.168Z,56.41
2019-03-16T03:58:34.155Z,56.31
2019-03-16T03:59:34.144Z,56.21
2019-03-16T04:00:34.132Z,56.31
2019-03-16T04:01:34.181Z,56.31
2019-03-16T04:02:34.117Z,56.31
2019-03-16T04:03:34.102Z,56.31
2019-03-16T04:04:34.100Z,56.31
2019-03-16T04:05:34.091Z,56.31
2019-03-16T04:06:34.051Z,56.41
2019-03-16T04:07:34.090Z,56.21
2019-03-16T04:08:34.030Z,55.91
2019-03-16T04:09:34.023Z,56.11
2019-03-16T04:10:34.012Z,56.21
2019-03-16T04:11:34.015Z,56.21
2019-03-16T04:12:34.027Z,56.21
2019-03-16T04:13:33.979Z,56.11
2019-03-16T04:14:33.964Z,56.11
2019-03-16T04:15:33.954Z,56.41
2019-03-16T04:16:33.939Z,56.11
2019-03-16T04:17:34.104Z,56.21
2019-03-16T04:18:33.927Z,56.01
2019-03-16T04:19:33.914Z,56.11
2019-03-16T04:20:33.903Z,56.11
2019-03-16T04:21:33.897Z,55.91
2019-03-16T04:22:33.919Z,56.01
2019-03-16T04:23:33.888Z,56.01
2019-03-16T04:24:33.868Z,55.91
2019-03-16T04:25:33.839Z,55.91
2019-03-16T04:26:33.830Z,56.31
2019-03-16T04:27:33.840Z,56.01
2019-03-16T04:28:33.858Z,56.21
2019-03-16T04:29:33.803Z,56.21
2019-03-16T04:30:33.793Z,55.91
2019-03-16T04:31:33.790Z,56.01
2019-03-16T04:32:33.777Z,55.91
2019-03-16T04:33:33.760Z,55.91
2019-03-16T04:34:33.786Z,56.01
2019-03-16T04:35:33.814Z,55.91
2019-03-16T04:36:33.719Z,55.91
2019-03-16T04:37:33.711Z,55.91
2019-03-16T04:38:33.719Z,56.11
2019-03-16T04:39:33.720Z,55.91
2019-03-16T04:40:33.681Z,55.91
2019-03-16T04:41:33.665Z,56.11
2019-03-16T04:42:33.655Z,56.11
2019-03-16T04:43:33.644Z,55.91
2019-03-16T04:44:33.638Z,56.11
2019-03-16T04:45:33.675Z,55.91
2019-03-16T04:46:33.657Z,56.11
2019-03-16T04:47:33.598Z,56.11
2019-03-16T04:48:33.592Z,55.91
2019-03-16T04:49:33.586Z,55.91
2019-03-16T04:50:33.575Z,56.11
2019-03-16T04:51:33.587Z,56.11
2019-03-16T04:52:33.543Z,55.81
2019-03-16T04:53:33.543Z,56.11
2019-03-16T04:54:33.534Z,56.11
2019-03-16T04:55:33.505Z,55.91
2019-03-16T04:56:33.541Z,56.11
2019-03-16T04:57:33.578Z,56.11
2019-03-16T04:58:33.482Z,56.01
2019-03-16T04:59:33.483Z,56.11
2019-03-16T05:00:33.458Z,56.11
2019-03-16T05:01:33.505Z,56.11
2019-03-16T05:02:33.464Z,56.11
2019-03-16T05:03:33.444Z,56.11
2019-03-16T05:04:42.376Z,56.11
2019-03-16T05:05:34.422Z,56.01
2019-03-16T05:06:33.409Z,56.11
2019-03-16T05:07:33.454Z,56.11
2019-03-16T05:08:33.407Z,56.11
2019-03-16T05:09:33.381Z,56.11
2019-03-16T05:10:33.363Z,56.11
2019-03-16T05:11:33.442Z,56.11
2019-03-16T05:12:33.341Z,56.11
2019-03-16T05:13:33.369Z,56.01
2019-03-16T05:14:33.357Z,56.11
2019-03-16T05:15:33.290Z,56.11
2019-03-16T05:16:33.281Z,56.11
2019-03-16T05:17:33.303Z,55.91
2019-03-16T05:18:33.261Z,56.11
2019-03-16T05:19:33.261Z,56.11
2019-03-16T05:20:33.247Z,56.11
2019-03-16T05:21:33.275Z,56.01
2019-03-16T05:22:33.262Z,56.11
2019-03-16T05:23:33.218Z,56.11
2019-03-16T05:24:33.231Z,56.11
2019-03-16T05:25:33.199Z,56.01
2019-03-16T05:26:33.190Z,56.11
2019-03-16T05:27:33.185Z,56.11
2019-03-16T05:28:33.187Z,56.21
2019-03-16T05:29:33.252Z,56.11
2019-03-16T05:30:33.118Z,56.21
2019-03-16T05:31:33.114Z,56.01
2019-03-16T05:32:33.099Z,56.11
2019-03-16T05:33:33.111Z,55.91
2019-03-16T05:34:33.105Z,56.01
2019-03-16T05:35:33.071Z,55.91
2019-03-16T05:36:33.072Z,56.01
2019-03-16T05:37:33.124Z,56.01
2019-03-16T05:38:33.043Z,56.11
2019-03-16T05:39:33.034Z,56.21
2019-03-16T05:40:33.020Z,56.21
2019-03-16T05:41:32.999Z,55.91
2019-03-16T05:42:32.986Z,56.11
2019-03-16T05:43:33.057Z,56.11
2019-03-16T05:44:32.986Z,56.11
2019-03-16T05:45:32.975Z,56.11
2019-03-16T05:46:32.969Z,56.21
2019-03-16T05:47:32.954Z,56.11
2019-03-16T05:48:32.968Z,56.11
2019-03-16T05:49:32.919Z,56.11
2019-03-16T05:50:32.915Z,56.21
2019-03-16T05:51:32.893Z,56.01
2019-03-16T05:52:32.899Z,56.01
2019-03-16T05:53:32.896Z,56.01
2019-03-16T05:54:32.921Z,56.21
2019-03-16T05:55:32.852Z,56.01
2019-03-16T05:56:32.846Z,56.01
2019-03-16T05:57:32.859Z,56.01
2019-03-16T05:58:32.887Z,56.01
2019-03-16T05:59:32.827Z,56.21
2019-03-16T06:00:32.792Z,56.11
2019-03-16T06:01:32.796Z,55.91
2019-03-16T06:02:32.795Z,56.11
2019-03-16T06:03:32.817Z,55.91
2019-03-16T06:04:32.779Z,56.11
2019-03-16T06:05:32.756Z,56.01
2019-03-16T06:06:32.726Z,56.11
2019-03-16T06:07:32.722Z,56.01
2019-03-16T06:08:32.754Z,56.01
2019-03-16T06:09:32.727Z,56.01
2019-03-16T06:10:32.683Z,56.01
2019-03-16T06:11:32.693Z,55.91
2019-03-16T06:12:32.671Z,55.91
2019-03-16T06:13:32.655Z,55.81
2019-03-16T06:14:32.699Z,56.21
2019-03-16T06:15:32.639Z,55.81
2019-03-16T06:16:32.642Z,55.91
2019-03-16T06:17:32.604Z,56.21
2019-03-16T06:18:32.606Z,56.11
2019-03-16T06:19:32.603Z,56.21
2019-03-16T06:20:32.619Z,56.01
2019-03-16T06:21:32.607Z,55.71
2019-03-16T06:22:32.554Z,56.11
2019-03-16T06:23:32.583Z,56.01
2019-03-16T06:24:32.540Z,56.11
2019-03-16T06:25:32.682Z,56.11
2019-03-16T06:26:32.507Z,56.11
2019-03-16T06:27:32.543Z,55.71
2019-03-16T06:28:32.523Z,55.81
2019-03-16T06:29:32.475Z,55.71
2019-03-16T06:30:32.456Z,55.71
2019-03-16T06:31:32.453Z,55.71
2019-03-16T06:32:32.464Z,55.71
2019-03-16T06:33:32.471Z,55.81
2019-03-16T06:34:32.407Z,55.71
2019-03-16T06:35:32.419Z,55.71
2019-03-16T06:36:32.413Z,55.81
2019-03-16T06:37:32.407Z,55.71
2019-03-16T06:38:32.402Z,55.81
2019-03-16T06:39:32.359Z,55.81
2019-03-16T06:40:32.345Z,56.01
2019-03-16T06:41:32.337Z,55.71
2019-03-16T06:42:32.356Z,55.81
2019-03-16T06:43:32.355Z,55.81
2019-03-16T06:44:32.346Z,55.81
2019-03-16T06:45:32.295Z,56.01
2019-03-16T06:46:32.278Z,55.51
2019-03-16T06:47:32.347Z,55.71
2019-03-16T06:48:32.270Z,55.81
2019-03-16T06:49:32.250Z,55.71
2019-03-16T06:50:32.246Z,55.71
2019-03-16T06:51:32.235Z,55.81
2019-03-16T06:52:32.220Z,55.61
2019-03-16T06:53:32.279Z,55.71
2019-03-16T06:54:32.190Z,55.71
2019-03-16T06:55:32.176Z,55.71
2019-03-16T06:56:32.198Z,55.71
2019-03-16T06:57:32.165Z,55.61
2019-03-16T06:58:32.211Z,55.61
2019-03-16T06:59:32.137Z,55.71
2019-03-16T07:00:32.136Z,55.61
2019-03-16T07:01:32.143Z,55.71
2019-03-16T07:02:32.150Z,55.61
2019-03-16T07:03:32.100Z,55.61
2019-03-16T07:04:32.115Z,55.61
2019-03-16T07:05:38.247Z,55.81
2019-03-16T07:06:33.074Z,55.61
2019-03-16T07:07:32.067Z,55.61
2019-03-16T07:08:32.086Z,55.61
2019-03-16T07:09:32.066Z,55.71
2019-03-16T07:10:32.089Z,55.61
2019-03-16T07:11:32.021Z,55.51
2019-03-16T07:12:34.716Z,55.51
2019-03-16T07:13:31.984Z,55.71
2019-03-16T07:14:31.998Z,55.51
2019-03-16T07:15:32.026Z,55.61
2019-03-16T07:16:31.968Z,55.51
2019-03-16T07:17:31.953Z,55.58
2019-03-16T07:18:31.969Z,55.51
2019-03-16T07:19:33.894Z,55.61
2019-03-16T07:20:31.995Z,55.61
2019-03-16T07:21:31.933Z,55.61
2019-03-16T07:22:31.899Z,55.51
2019-03-16T07:23:32.052Z,55.71
2019-03-16T07:24:31.868Z,55.61
2019-03-16T07:25:31.883Z,55.61
2019-03-16T07:26:31.880Z,55.51
2019-03-16T07:27:31.846Z,55.71
2019-03-16T07:28:31.829Z,55.61
2019-03-16T07:29:31.831Z,55.81
2019-03-16T07:30:31.813Z,55.71
2019-03-16T07:31:31.845Z,55.51
2019-03-16T07:32:32.593Z,55.81
2019-03-16T07:33:31.801Z,55.61
2019-03-16T07:34:31.778Z,55.51
2019-03-16T07:35:31.760Z,55.81
2019-03-16T07:36:31.753Z,55.71
2019-03-16T07:37:31.762Z,55.58
2019-03-16T07:38:31.739Z,55.81
2019-03-16T07:39:31.690Z,55.51
2019-03-16T07:40:31.687Z,55.51
2019-03-16T07:41:31.693Z,55.58
2019-03-16T07:42:31.688Z,55.41
2019-03-16T07:43:31.683Z,55.28
2019-03-16T07:44:31.674Z,55.61
2019-03-16T07:45:31.639Z,55.71
2019-03-16T07:46:31.655Z,55.51
2019-03-16T07:47:31.645Z,55.48
2019-03-16T07:48:31.624Z,55.48
2019-03-16T07:49:31.584Z,55.41
2019-03-16T07:50:31.590Z,55.38
2019-03-16T07:51:31.601Z,55.41
2019-03-16T07:52:31.548Z,55.61
2019-03-16T07:53:31.552Z,55.51
2019-03-16T07:54:31.540Z,55.48
2019-03-16T07:55:31.545Z,55.31
2019-03-16T07:56:31.495Z,55.61
2019-03-16T07:57:40.109Z,55.48
2019-03-16T07:58:32.505Z,55.11
2019-03-16T07:59:31.493Z,55.21
2019-03-16T08:00:31.480Z,55.31
2019-03-16T08:01:31.471Z,55.51
2019-03-16T08:02:31.455Z,55.38
2019-03-16T08:03:31.468Z,55.38
2019-03-16T08:04:31.424Z,55.41
2019-03-16T08:05:31.394Z,55.38
2019-03-16T08:06:33.431Z,55.18
2019-03-16T08:07:31.382Z,55.38
2019-03-16T08:08:31.422Z,55.28
2019-03-16T08:09:31.411Z,55.28
2019-03-16T08:10:31.380Z,55.31
2019-03-16T08:11:31.337Z,55.28
2019-03-16T08:12:32.582Z,55.31
2019-03-16T08:13:31.322Z,55.38
2019-03-16T08:14:31.301Z,55.38
2019-03-16T08:15:31.364Z,55.38
2019-03-16T08:16:31.304Z,55.38
2019-03-16T08:17:31.291Z,55.28
2019-03-16T08:18:31.282Z,55.28
2019-03-16T08:19:31.276Z,55.08
2019-03-16T08:20:31.744Z,55.28
2019-03-16T08:21:31.266Z,55.28
2019-03-16T08:22:31.248Z,55.08
2019-03-16T08:23:31.222Z,55.08
2019-03-16T08:24:31.221Z,55.18
2019-03-16T08:25:31.199Z,55.18
2019-03-16T08:26:31.194Z,55.08
2019-03-16T08:27:31.255Z,55.08
2019-03-16T08:28:31.166Z,55.18
2019-03-16T08:29:31.160Z,55.18
2019-03-16T08:30:31.146Z,55.18
2019-03-16T08:31:31.125Z,55.18
2019-03-16T08:32:31.156Z,55.08
2019-03-16T08:33:31.110Z,55.28
2019-03-16T08:34:31.110Z,54.98
2019-03-16T08:35:31.080Z,54.98
2019-03-16T08:36:31.062Z,55.08
2019-03-16T08:37:31.072Z,55.08
2019-03-16T08:38:31.086Z,55.08
2019-03-16T08:39:31.048Z,54.88
2019-03-16T08:40:31.015Z,55.18
2019-03-16T08:41:31.040Z,55.08
2019-03-16T08:42:30.980Z,55.28
2019-03-16T08:43:31.012Z,54.68
2019-03-16T08:44:31.030Z,54.78
2019-03-16T08:45:30.975Z,54.88
2019-03-16T08:46:30.965Z,54.68
2019-03-16T08:47:31.616Z,54.88
2019-03-16T08:48:30.929Z,54.98
2019-03-16T08:49:30.929Z,55.05
2019-03-16T08:50:30.948Z,54.88
2019-03-16T08:51:30.904Z,54.98
2019-03-16T08:52:30.889Z,54.78
2019-03-16T08:53:30.883Z,54.88
2019-03-16T08:54:30.864Z,54.98
2019-03-16T08:55:30.898Z,54.58
2019-03-16T08:56:30.907Z,54.78
2019-03-16T08:57:30.880Z,54.98
2019-03-16T08:58:30.847Z,54.98
2019-03-16T08:59:30.822Z,54.58
2019-03-16T09:00:30.820Z,54.78
2019-03-16T09:01:30.782Z,54.85
2019-03-16T09:02:30.822Z,54.98
2019-03-16T09:03:42.781Z,54.85
2019-03-16T09:04:31.773Z,54.88
2019-03-16T09:05:30.779Z,54.98
2019-03-16T09:06:30.752Z,54.96
2019-03-16T09:07:30.744Z,54.88
2019-03-16T09:08:30.722Z,55.08
2019-03-16T09:09:30.749Z,54.85
2019-03-16T09:10:30.686Z,54.85
2019-03-16T09:11:30.683Z,54.98
2019-03-16T09:12:30.658Z,54.75
2019-03-16T09:13:30.664Z,54.75
2019-03-16T09:14:30.651Z,54.75
2019-03-16T09:15:30.672Z,54.85
2019-03-16T09:16:30.654Z,54.85
2019-03-16T09:17:30.635Z,54.65
2019-03-16T09:18:30.620Z,54.85
2019-03-16T09:19:30.585Z,54.75
2019-03-16T09:20:30.611Z,54.75
2019-03-16T09:21:30.618Z,54.85
2019-03-16T09:22:30.578Z,54.55
2019-03-16T09:23:30.552Z,54.65
2019-03-16T09:24:30.585Z,54.75
2019-03-16T09:25:30.556Z,54.65
2019-03-16T09:26:30.557Z,54.65
2019-03-16T09:27:31.682Z,54.65
2019-03-16T09:28:30.505Z,54.55
2019-03-16T09:29:30.494Z,54.45
2019-03-16T09:30:30.455Z,54.25
2019-03-16T09:31:30.478Z,54.45
2019-03-16T09:32:30.519Z,54.53
2019-03-16T09:33:30.465Z,54.33
2019-03-16T09:34:30.437Z,54.25
2019-03-16T09:35:30.436Z,54.35
2019-03-16T09:36:30.421Z,54.25
2019-03-16T09:37:30.386Z,54.22
2019-03-16T09:38:30.423Z,54.15
2019-03-16T09:39:30.394Z,54.15
2019-03-16T09:40:30.372Z,54.15
2019-03-16T09:41:30.344Z,54.02
2019-03-16T09:42:30.343Z,54.13
2019-03-16T09:43:30.321Z,54.22
2019-03-16T09:44:30.491Z,54.13
2019-03-16T09:45:30.326Z,54.22
2019-03-16T09:46:30.301Z,54.25
2019-03-16T09:47:30.292Z,54.22
2019-03-16T09:48:30.274Z,54.13
2019-03-16T09:49:30.283Z,54.33
2019-03-16T09:50:30.290Z,54.13
2019-03-16T09:51:30.241Z,54.02
2019-03-16T09:52:30.228Z,54.13
2019-03-16T09:53:30.244Z,54.15
2019-03-16T09:54:30.225Z,53.82
2019-03-16T09:55:30.206Z,54.22
2019-03-16T09:56:30.212Z,54.13
2019-03-16T09:57:30.186Z,53.62
2019-03-16T09:58:31.377Z,53.62
2019-03-16T09:59:30.161Z,54.02
2019-03-16T10:00:30.161Z,53.82
2019-03-16T10:01:30.118Z,53.72
2019-03-16T10:02:30.174Z,54.02
2019-03-16T10:03:30.127Z,54.02
2019-03-16T10:04:30.096Z,54.02
2019-03-16T10:05:30.090Z,53.72
2019-03-16T10:06:30.120Z,54.02
2019-03-16T10:07:30.079Z,53.82
2019-03-16T10:08:30.109Z,54.02
2019-03-16T10:09:30.056Z,53.82
2019-03-16T10:10:30.047Z,53.92
2019-03-16T10:11:30.050Z,54.13
2019-03-16T10:12:30.024Z,53.72
2019-03-16T10:13:30.022Z,53.92
2019-03-16T10:14:30.019Z,53.62
2019-03-16T10:15:29.979Z,53.90
2019-03-16T10:16:29.973Z,54.10
2019-03-16T10:17:29.960Z,53.50
2019-03-16T10:18:29.946Z,53.70
2019-03-16T10:19:29.940Z,53.80
2019-03-16T10:20:29.943Z,53.70
2019-03-16T10:21:29.928Z,53.39
2019-03-16T10:22:29.917Z,53.59
2019-03-16T10:23:29.900Z,53.39
2019-03-16T10:24:29.898Z,52.47
2019-03-16T10:25:29.913Z,52.67
2019-03-16T10:26:29.887Z,52.47
2019-03-16T10:27:29.860Z,52.77
2019-03-16T10:28:29.843Z,52.77
2019-03-16T10:29:30.635Z,52.37
2019-03-16T10:30:29.822Z,52.87
2019-03-16T10:31:29.842Z,52.77
2019-03-16T10:32:29.811Z,53.07
2019-03-16T10:33:29.785Z,52.57
2019-03-16T10:34:29.792Z,52.67
2019-03-16T10:35:29.771Z,52.57
2019-03-16T10:36:29.755Z,52.67
2019-03-16T10:37:29.777Z,52.97
2019-03-16T10:38:29.777Z,52.77
2019-03-16T10:39:29.716Z,52.87
2019-03-16T10:40:29.711Z,52.67
2019-03-16T10:41:29.694Z,52.87
2019-03-16T10:42:29.695Z,53.07
2019-03-16T10:43:29.709Z,52.87
2019-03-16T10:44:29.700Z,52.87
2019-03-16T10:45:29.644Z,52.77
2019-03-16T10:46:29.661Z,52.87
2019-03-16T10:47:29.679Z,52.87
2019-03-16T10:48:29.625Z,53.17
2019-03-16T10:49:29.638Z,53.07
2019-03-16T10:50:29.699Z,52.87
2019-03-16T10:51:29.583Z,53.07
2019-03-16T10:52:29.565Z,52.57
2019-03-16T10:53:29.572Z,52.67
2019-03-16T10:54:29.570Z,52.77
2019-03-16T10:55:29.579Z,52.97
2019-03-16T10:56:29.533Z,52.97
2019-03-16T10:57:29.530Z,52.80
2019-03-16T10:58:29.510Z,52.47
2019-03-16T10:59:29.490Z,52.57
2019-03-16T11:00:29.489Z,52.47
2019-03-16T11:01:29.534Z,52.57
2019-03-16T11:02:29.478Z,53.57
2019-03-16T11:03:29.470Z,52.87
2019-03-16T11:04:29.438Z,52.87
2019-03-16T11:05:29.448Z,52.77
2019-03-16T11:06:29.494Z,53.50
2019-03-16T11:07:29.449Z,53.47
2019-03-16T11:08:29.389Z,53.57
2019-03-16T11:09:29.492Z,52.47
2019-03-16T11:10:29.386Z,52.47
2019-03-16T11:11:29.361Z,52.47
2019-03-16T11:12:29.369Z,52.77
2019-03-16T11:13:29.383Z,52.77
2019-03-16T11:14:29.343Z,52.77
2019-03-16T11:15:29.342Z,52.77
2019-03-16T11:16:29.331Z,52.67
2019-03-16T11:17:29.303Z,52.77
2019-03-16T11:18:29.289Z,52.77
2019-03-16T11:19:29.318Z,52.87
2019-03-16T11:20:29.271Z,52.77
2019-03-16T11:21:29.262Z,52.57
2019-03-16T11:22:29.296Z,53.20
2019-03-16T11:23:29.238Z,53.17
2019-03-16T11:24:29.260Z,52.57
2019-03-16T11:25:29.219Z,52.97
2019-03-16T11:26:29.201Z,53.37
2019-03-16T11:27:29.194Z,53.37
2019-03-16T11:28:29.182Z,53.37
2019-03-16T11:29:29.202Z,52.97
2019-03-16T11:30:29.189Z,52.67
2019-03-16T11:31:29.150Z,52.57
2019-03-16T11:32:29.151Z,52.67
2019-03-16T11:33:29.178Z,52.67
2019-03-16T11:34:29.138Z,52.67
2019-03-16T11:35:29.105Z,52.77
2019-03-16T11:36:29.109Z,52.67
2019-03-16T11:37:29.086Z,52.57
2019-03-16T11:38:29.077Z,52.57
2019-03-16T11:39:31.981Z,52.77
2019-03-16T11:40:29.028Z,52.67
2019-03-16T11:41:29.049Z,52.97
2019-03-16T11:42:29.006Z,52.87
2019-03-16T11:43:29.028Z,52.67
2019-03-16T11:44:29.002Z,52.87
2019-03-16T11:45:29.007Z,52.57
2019-03-16T11:46:28.977Z,52.44
2019-03-16T11:47:28.995Z,52.34
2019-03-16T11:48:28.944Z,52.44
2019-03-16T11:49:28.985Z,52.04
2019-03-16T11:50:28.920Z,52.64
2019-03-16T11:51:28.933Z,52.24
2019-03-16T11:52:28.927Z,52.32
2019-03-16T11:53:28.907Z,51.72
2019-03-16T11:54:28.896Z,51.92
2019-03-16T11:55:28.929Z,51.54
2019-03-16T11:56:28.874Z,51.62
2019-03-16T11:57:28.854Z,52.32
2019-03-16T11:58:28.853Z,52.01
2019-03-16T11:59:28.831Z,52.62
2019-03-16T12:00:28.806Z,52.01
2019-03-16T12:01:28.869Z,52.52
2019-03-16T12:02:28.789Z,52.12
2019-03-16T12:03:28.812Z,52.32
2019-03-16T12:04:28.803Z,51.62
2019-03-16T12:05:28.812Z,51.99
2019-03-16T12:06:28.774Z,52.29
2019-03-16T12:07:28.736Z,52.09
2019-03-16T12:08:28.727Z,52.19
2019-03-16T12:09:28.711Z,51.89
2019-03-16T12:10:28.731Z,51.99
2019-03-16T12:11:28.789Z,51.69
2019-03-16T12:12:28.698Z,51.99
2019-03-16T12:13:28.673Z,52.19
2019-03-16T12:14:28.683Z,51.69
2019-03-16T12:15:28.686Z,51.89
2019-03-16T12:16:28.668Z,51.67
2019-03-16T12:17:28.658Z,51.27
2019-03-16T12:18:28.659Z,51.89
2019-03-16T12:19:28.619Z,51.79
2019-03-16T12:20:28.591Z,51.99
2019-03-16T12:21:28.598Z,51.79
2019-03-16T12:22:28.592Z,51.97
2019-03-16T12:23:28.598Z,51.69
2019-03-16T12:24:28.793Z,51.89
2019-03-16T12:25:28.572Z,51.99
2019-03-16T12:26:28.568Z,51.99
2019-03-16T12:27:28.512Z,51.77
2019-03-16T12:28:28.527Z,51.89
2019-03-16T12:29:33.920Z,52.07
2019-03-16T12:30:29.497Z,51.79
2019-03-16T12:31:28.490Z,51.59
2019-03-16T12:32:28.478Z,51.27
2019-03-16T12:33:28.459Z,51.37
2019-03-16T12:34:28.438Z,51.77
2019-03-16T12:35:28.488Z,52.17
2019-03-16T12:36:28.436Z,51.57
2019-03-16T12:37:28.404Z,51.46
2019-03-16T12:38:28.397Z,51.37
2019-03-16T12:39:28.385Z,51.57
2019-03-16T12:40:28.370Z,50.76
2019-03-16T12:41:28.398Z,51.34
2019-03-16T12:42:28.363Z,51.17
2019-03-16T12:43:28.350Z,51.07
2019-03-16T12:44:28.351Z,51.07
2019-03-16T12:45:28.345Z,51.04
2019-03-16T12:46:28.348Z,51.25
2019-03-16T12:47:31.078Z,51.34
2019-03-16T12:48:28.318Z,51.64
2019-03-16T12:49:28.299Z,51.74
2019-03-16T12:50:28.278Z,51.64
2019-03-16T12:51:28.322Z,51.64
2019-03-16T12:52:28.260Z,50.54